Time;durP1;ratioP1;P1;durP2;ratioP2;P2;SDS_P1;SDS_P2;PMS_P1;PMS_P2;Temp;Humidity;BMP_temperature;BMP_pressure;BME280_temperature;BME280_humidity;BME280_pressure;Samples;Min_cycle;Max_cycle;Signal;HPM_P1;HPM_P2
2021/01/24 05:22:40;;;;;;;12.27;4.88;;;;;;;27.63;49.92;101033.28;5070601;27;44638;-35
2021/01/24 05:25:12;;;;;;;29.70;4.25;;;;;;;28.01;50.71;101043.75;5050621;28;69689;-35
2021/01/24 05:27:43;;;;;;;29.00;5.50;;;;;;;28.37;50.07;101031.94;5049841;28;66316;-36
2021/01/24 05:30:19;;;;;;;25.98;5.50;;;;;;;28.50;48.82;101010.47;5050550;28;68709;-36
2021/01/24 05:32:53;;;;;;;16.48;4.88;;;;;;;28.82;47.60;101028.84;5051622;28;66551;-36
2021/01/24 05:35:23;;;;;;;;;;;;;;;29.05;49.37;101017.69;5051235;28;70213;-36
2021/01/24 05:37:54;;;;;;;11.07;4.22;;;;;;;29.14;45.92;101016.47;5053629;28;66461;-36
2021/01/24 05:40:24;;;;;;;4.97;3.50;;;;;;;29.16;45.98;101009.00;5049452;28;69142;-36
2021/01/24 05:42:55;;;;;;;10.98;3.53;;;;;;;29.18;45.61;101006.94;5052879;28;65593;-35
2021/01/24 05:45:29;;;;;;;14.07;3.20;;;;;;;29.26;43.86;100993.22;5046752;28;69298;-35
2021/01/24 05:48:00;;;;;;;9.48;2.90;;;;;;;29.33;44.05;100991.34;5055885;28;66081;-36
2021/01/24 05:50:34;;;;;;;6.28;3.30;;;;;;;29.24;42.83;100983.66;5053071;28;69813;-37
2021/01/24 05:53:05;;;;;;;5.82;3.60;;;;;;;29.33;44.37;100977.84;5052803;28;66458;-37
2021/01/24 05:55:37;;;;;;;4.50;3.50;;;;;;;29.33;43.48;100960.78;5049973;28;70048;-35
2021/01/24 05:58:26;;;;;;;3.33;2.80;;;;;;;29.36;43.95;100955.81;5052135;28;65838;-37
2021/01/24 06:00:56;;;;;;;3.60;3.30;;;;;;;29.38;42.92;100953.72;5051142;28;69792;-36
2021/01/24 06:03:27;;;;;;;3.35;2.88;;;;;;;29.39;42.16;100955.41;5052641;27;66599;-36
2021/01/24 06:05:58;;;;;;;2.28;2.08;;;;;;;29.39;41.49;100939.19;5053860;28;69916;-35
2021/01/24 06:08:29;;;;;;;2.22;2.03;;;;;;;29.44;39.94;100935.84;5070262;28;65305;-37
2021/01/24 06:11:00;;;;;;;1.92;1.83;;;;;;;29.37;40.92;100933.16;5052112;28;69178;-37
2021/01/24 06:13:34;;;;;;;2.05;1.95;;;;;;;29.32;41.44;100924.84;5053646;28;65455;-35
2021/01/24 06:16:08;;;;;;;2.47;2.22;;;;;;;29.32;40.67;100916.72;5053046;28;69926;-37
2021/01/24 06:19:07;;;;;;;1.70;1.60;;;;;;;29.27;38.27;100907.59;5053450;28;66249;-37
2021/01/24 06:21:42;;;;;;;1.55;1.38;;;;;;;29.19;41.11;100876.22;5044576;28;69351;-36
2021/01/24 06:24:25;;;;;;;1.58;1.45;;;;;;;29.34;39.14;100908.44;5053351;28;66338;-37
2021/01/24 06:27:01;;;;;;;2.47;1.00;;;;;;;29.28;37.94;100893.03;5054563;28;70134;-38
2021/01/24 06:29:35;;;;;;;1.95;1.85;;;;;;;29.34;39.66;100893.06;5054364;28;66505;-37
2021/01/24 06:32:07;;;;;;;2.97;1.75;;;;;;;29.36;39.28;100885.56;5044592;28;69891;-36
2021/01/24 06:34:42;;;;;;;1.90;1.50;;;;;;;29.38;38.79;100883.47;5032547;28;66663;-36
2021/01/24 06:37:21;;;;;;;3.85;1.65;;;;;;;29.38;38.27;100877.25;5034504;28;69489;-36
2021/01/24 06:39:54;;;;;;;2.20;1.70;;;;;;;29.40;38.16;100870.59;5041361;28;65657;-36
2021/01/24 06:42:43;;;;;;;3.47;1.77;;;;;;;29.40;38.60;100869.75;5025554;28;70010;-37
2021/01/24 06:45:25;;;;;;;2.28;1.90;;;;;;;29.38;38.81;100861.84;5039466;28;65257;-35
2021/01/24 06:47:58;;;;;;;;;;;;;;;29.45;38.89;100861.00;5030175;28;69852;-37
2021/01/24 06:50:42;;;;;;;2.60;2.10;;;;;;;29.43;36.64;100853.13;5039202;28;66095;-35
2021/01/24 06:53:19;;;;;;;2.08;1.85;;;;;;;29.44;37.72;100848.53;5041052;28;69508;-35
2021/01/24 06:55:56;;;;;;;42.25;3.33;;;;;;;29.38;37.78;100840.22;5038490;28;66445;-36
2021/01/24 06:58:36;;;;;;;5.53;2.22;;;;;;;29.39;38.26;100847.31;5040275;28;69107;-36
2021/01/24 07:01:33;;;;;;;2.65;2.40;;;;;;;29.24;36.58;100819.69;5040488;28;65686;-37
2021/01/24 07:04:23;;;;;;;11.23;2.05;;;;;;;29.43;36.80;100839.63;5030809;28;70619;-36
2021/01/24 07:06:59;;;;;;;6.32;1.88;;;;;;;29.37;37.75;100830.47;5034636;28;65885;-36
2021/01/24 07:09:32;;;;;;;5.03;2.03;;;;;;;29.49;37.52;100832.53;5034639;28;70192;-36
2021/01/24 07:12:07;;;;;;;2.67;1.50;;;;;;;29.49;37.94;100830.66;5039749;28;65931;-36
2021/01/24 07:14:38;;;;;;;4.53;1.70;;;;;;;29.48;37.20;100831.69;5033539;28;69891;-36
2021/01/24 07:17:13;;;;;;;2.10;1.58;;;;;;;29.49;37.25;100824.41;5039456;28;65237;-37
2021/01/24 07:19:45;;;;;;;2.90;1.60;;;;;;;29.53;36.84;100826.50;5040821;28;69898;-36
2021/01/24 07:22:25;;;;;;;1.77;1.25;;;;;;;29.48;35.52;100811.97;5037344;28;65385;-35
2021/01/24 07:24:56;;;;;;;3.75;1.98;;;;;;;29.53;36.81;100814.84;5037824;28;70799;-36
2021/01/24 07:27:29;;;;;;;2.03;1.13;;;;;;;29.55;36.80;100810.03;5035940;28;66614;-36
2021/01/24 07:30:00;;;;;;;1.33;1.17;;;;;;;29.48;36.67;100806.56;5037107;28;70074;-35
2021/01/24 07:32:30;;;;;;;3.05;1.35;;;;;;;29.57;36.41;100810.66;5038601;28;66426;-36
2021/01/24 07:35:02;;;;;;;1.42;1.33;;;;;;;29.47;36.33;100800.28;5038679;28;70291;-35
2021/01/24 07:37:33;;;;;;;2.05;1.85;;;;;;;29.54;36.19;100803.00;5036650;28;65365;-35
2021/01/24 07:40:05;;;;;;;2.33;1.50;;;;;;;29.56;36.40;100798.19;5036262;28;70223;-35
2021/01/24 07:42:35;;;;;;;2.58;1.42;;;;;;;29.65;36.38;100802.34;5029615;28;64463;-37
2021/01/24 07:45:06;;;;;;;1.33;1.23;;;;;;;29.61;35.82;100801.09;5029635;28;69094;-36
2021/01/24 07:47:37;;;;;;;2.17;1.40;;;;;;;29.59;36.16;100795.91;5024167;28;65750;-38
2021/01/24 07:50:09;;;;;;;3.00;2.38;;;;;;;29.60;37.06;100788.63;5039497;28;69822;-36
2021/01/24 07:52:41;;;;;;;26.92;4.10;;;;;;;29.72;37.81;100792.34;5037218;28;65967;-36
2021/01/24 07:55:12;;;;;;;25.23;4.10;;;;;;;29.73;38.86;100788.59;5038712;28;68964;-36
2021/01/24 07:57:43;;;;;;;23.20;5.10;;;;;;;29.89;38.57;100789.13;5039861;28;66014;-36
2021/01/24 08:00:15;;;;;;;36.45;6.05;;;;;;;30.03;37.77;100777.19;5034711;28;70072;-36
2021/01/24 08:02:46;;;;;;;26.23;5.68;;;;;;;30.21;37.08;100774.59;5039193;28;66930;-36
2021/01/24 08:05:16;;;;;;;17.40;5.23;;;;;;;30.27;37.13;100784.56;5039399;28;69362;-36
2021/01/24 08:07:49;;;;;;;24.52;6.03;;;;;;;30.21;38.00;100771.06;5040117;28;65005;-38
2021/01/24 08:10:20;;;;;;;14.95;6.13;;;;;;;30.27;37.50;100779.16;5033931;28;70857;-35
2021/01/24 08:12:52;;;;;;;32.33;7.13;;;;;;;30.30;40.22;100771.66;5035516;28;66529;-36
2021/01/24 08:15:23;;;;;;;16.63;7.97;;;;;;;30.46;40.98;100779.25;5032130;28;70577;-36
2021/01/24 08:17:54;;;;;;;24.65;11.95;;;;;;;30.64;43.37;100770.34;5037136;28;65973;-37
2021/01/24 08:20:26;;;;;;;27.50;15.87;;;;;;;30.81;45.28;100776.88;5036701;28;69916;-35
2021/01/24 08:22:57;;;;;;;27.77;15.85;;;;;;;30.93;45.55;100772.41;5034825;28;65267;-36
2021/01/24 08:25:28;;;;;;;42.33;15.10;;;;;;;30.98;46.24;100763.63;5034508;28;69317;-34
2021/01/24 08:28:01;;;;;;;39.47;13.60;;;;;;;31.07;46.59;100773.09;5035177;28;67727;-36
2021/01/24 08:30:38;;;;;;;16.43;11.40;;;;;;;31.01;46.41;100746.91;5038830;28;69330;-36
2021/01/24 08:33:18;;;;;;;66.68;22.70;;;;;;;31.32;48.21;100775.75;5037602;28;65523;-36
2021/01/24 08:35:48;;;;;;;57.17;25.77;;;;;;;31.45;48.56;100774.78;5037192;28;70732;-37
2021/01/24 08:38:21;;;;;;;83.25;33.47;;;;;;;31.75;48.81;100771.28;5039456;28;65713;-35
2021/01/24 08:40:51;;;;;;;55.55;27.00;;;;;;;31.65;48.71;100763.72;5028019;28;70085;-37
2021/01/24 08:43:24;;;;;;;50.03;22.48;;;;;;;31.75;49.20;100784.84;5031517;28;65677;-37
2021/01/24 08:46:14;;;;;;;36.53;19.85;;;;;;;31.69;49.40;100774.94;5034047;28;70567;-37
2021/01/24 08:48:59;;;;;;;29.73;17.58;;;;;;;31.65;50.04;100784.56;5032063;28;66652;-36
2021/01/24 08:51:53;;;;;;;33.88;16.05;;;;;;;31.46;50.64;100754.78;5034235;28;70424;-36
2021/01/24 08:54:28;;;;;;;32.20;17.35;;;;;;;31.50;51.12;100750.53;5036708;28;65399;-37
2021/01/24 08:57:08;;;;;;;46.88;30.52;;;;;;;31.61;51.62;100774.16;5037938;28;70769;-36
2021/01/24 09:00:05;;;;;;;53.08;31.63;;;;;;;31.64;51.42;100762.03;5039774;28;66396;-36
2021/01/24 09:02:37;;;;;;;61.45;34.65;;;;;;;31.77;51.11;100767.28;5038606;28;70067;-36
2021/01/24 09:05:32;;;;;;;87.63;36.28;;;;;;;31.81;51.76;100773.09;5032017;28;66395;-36
2021/01/24 09:08:02;;;;;;;85.38;39.78;;;;;;;31.81;51.12;100770.38;5039224;28;70053;-35
2021/01/24 09:10:33;;;;;;;103.70;40.85;;;;;;;31.92;51.09;100783.19;5038826;28;65811;-35
2021/01/24 09:13:04;;;;;;;134.60;40.88;;;;;;;31.95;51.82;100780.00;5035144;28;69815;-36
2021/01/24 09:15:35;;;;;;;153.50;43.58;;;;;;;31.96;52.44;100773.53;5037957;28;66511;-35
2021/01/24 09:18:06;;;;;;;163.25;44.40;;;;;;;32.00;52.65;100782.88;5037254;28;70015;-36
2021/01/24 09:20:36;;;;;;;150.10;42.40;;;;;;;31.99;52.33;100780.41;5036912;28;65108;-36
2021/01/24 09:23:07;;;;;;;113.57;38.78;;;;;;;31.99;52.59;100781.22;5034096;28;69863;-35
2021/01/24 09:25:38;;;;;;;93.57;38.10;;;;;;;31.94;52.60;100783.78;5037198;28;65561;-35
2021/01/24 09:28:08;;;;;;;96.63;38.65;;;;;;;31.90;52.84;100788.00;5038360;28;69108;-35
2021/01/24 09:30:39;;;;;;;88.70;36.97;;;;;;;31.91;53.05;100786.13;5039009;28;64876;-32
2021/01/24 09:33:10;;;;;;;69.47;36.50;;;;;;;31.88;53.47;100794.72;5034856;28;69262;-32
2021/01/24 09:35:40;;;;;;;76.95;37.00;;;;;;;31.91;52.85;100788.81;5037764;28;65830;-31
2021/01/24 09:38:11;;;;;;;66.30;37.70;;;;;;;31.91;52.73;100792.41;5034883;28;69694;-34
2021/01/24 09:40:41;;;;;;;71.22;37.97;;;;;;;31.88;53.21;100795.53;5035081;28;66002;-33
2021/01/24 09:43:12;;;;;;;54.85;37.47;;;;;;;31.92;52.96;100801.34;5036772;28;69852;-32
2021/01/24 09:45:42;;;;;;;58.40;35.95;;;;;;;31.90;53.33;100792.56;5028746;28;65848;-31
2021/01/24 09:48:15;;;;;;;85.00;36.60;;;;;;;31.89;53.33;100797.19;5028188;28;69057;-31
2021/01/24 09:50:46;;;;;;;97.05;38.17;;;;;;;31.87;53.71;100793.03;5036946;28;65254;-32
2021/01/24 09:53:16;;;;;;;88.13;38.58;;;;;;;31.92;52.95;100804.06;5035605;28;68928;-33
2021/01/24 09:55:47;;;;;;;67.28;37.33;;;;;;;31.92;53.27;100810.31;5037050;28;66291;-33
2021/01/24 09:58:17;;;;;;;69.82;35.83;;;;;;;31.92;52.87;100807.59;5038528;28;69726;-32
2021/01/24 10:00:48;;;;;;;72.22;36.53;;;;;;;31.92;53.02;100807.59;5026517;28;65112;-33
2021/01/24 10:03:18;;;;;;;68.47;34.90;;;;;;;31.90;53.37;100809.72;5028572;28;70078;-33
2021/01/24 10:05:51;;;;;;;64.93;33.37;;;;;;;31.91;53.48;100811.38;5030783;28;65537;-33
2021/01/24 10:08:21;;;;;;;53.60;31.90;;;;;;;31.89;54.30;100818.88;5036743;28;69905;-33
2021/01/24 10:10:52;;;;;;;54.10;30.85;;;;;;;31.90;54.40;100820.56;5039074;28;65317;-31
2021/01/24 10:13:23;;;;;;;54.40;29.75;;;;;;;31.91;54.09;100827.66;5041668;28;69769;-32
2021/01/24 10:15:54;;;;;;;44.00;30.92;;;;;;;31.91;54.17;100822.22;5040233;28;66123;-32
2021/01/24 10:18:25;;;;;;;48.60;32.08;;;;;;;31.91;54.59;100824.94;5039501;28;70171;-33
2021/01/24 10:20:56;;;;;;;50.85;32.47;;;;;;;31.92;54.17;100837.44;5040897;28;67046;-33
2021/01/24 10:23:27;;;;;;;51.58;34.05;;;;;;;31.92;54.07;100829.31;5037651;28;69924;-34
2021/01/24 10:25:57;;;;;;;74.18;36.33;;;;;;;31.93;53.36;100835.56;5040517;28;65346;-32
2021/01/24 10:28:40;;;;;;;77.53;42.63;;;;;;;31.82;53.97;100823.59;5039959;28;69478;-33
2021/01/24 10:31:11;;;;;;;71.88;44.00;;;;;;;31.92;53.68;100850.19;5040848;28;66760;-33
2021/01/24 10:33:41;;;;;;;70.57;45.50;;;;;;;31.88;53.46;100855.22;5039203;28;69913;-33
2021/01/24 10:36:12;;;;;;;82.80;49.20;;;;;;;31.91;53.80;100860.22;5036052;28;65719;-34
2021/01/24 10:38:46;;;;;;;95.03;50.08;;;;;;;31.90;54.17;100863.97;5033061;28;70165;-35
2021/01/24 10:41:16;;;;;;;76.28;45.15;;;;;;;31.89;53.80;100873.13;5040176;28;66114;-34
2021/01/24 10:43:47;;;;;;;77.90;44.15;;;;;;;31.90;54.08;100874.81;5034834;28;69821;-35
2021/01/24 10:46:34;;;;;;;65.85;42.40;;;;;;;31.86;54.23;100883.63;5039378;28;65366;-33
2021/01/24 10:55:46;;;;;;;56.38;30.50;;;;;;;31.95;55.43;100899.38;5118135;23;44137;-34
2021/01/24 10:58:18;;;;;;;52.70;27.33;;;;;;;31.97;55.21;100902.69;4823327;29;66697;-35
2021/01/24 11:00:48;;;;;;;49.90;23.52;;;;;;;31.98;55.37;100901.66;4827906;29;69077;-35
2021/01/24 11:03:19;;;;;;;44.95;24.02;;;;;;;31.74;55.37;100870.81;4829123;29;64766;-35
2021/01/24 11:05:49;;;;;;;41.38;22.27;;;;;;;31.96;55.27;100911.09;4827892;29;69821;-35
2021/01/24 11:08:20;;;;;;;61.63;20.40;;;;;;;31.93;55.48;100903.38;4827329;29;66123;-36
2021/01/24 11:10:52;;;;;;;38.60;18.02;;;;;;;31.85;54.97;100904.50;4824399;29;68597;-36
2021/01/24 11:13:23;;;;;;;;;;;;;;;31.79;55.18;100908.13;4827739;29;66702;-36
2021/01/24 11:15:55;;;;;;;39.05;15.95;;;;;;;31.80;55.53;100907.88;4826092;29;70769;-35
2021/01/24 11:18:25;;;;;;;31.15;16.65;;;;;;;31.73;55.14;100917.13;4828297;29;64721;-34
2021/01/24 11:20:56;;;;;;;40.88;25.58;;;;;;;31.64;55.63;100918.50;4821259;29;70090;-34
2021/01/24 11:23:26;;;;;;;59.42;36.42;;;;;;;31.53;55.77;100920.06;4826508;29;66317;-36
2021/01/24 11:25:58;;;;;;;54.77;37.27;;;;;;;31.47;55.41;100929.09;4826281;29;70532;-37
2021/01/24 11:28:29;;;;;;;;;;;;;;;31.36;56.29;100936.06;4827617;29;65938;-36
2021/01/24 11:31:00;;;;;;;43.67;25.45;;;;;;;31.52;55.69;100938.22;4815777;29;70493;-35
2021/01/24 11:33:31;;;;;;;51.75;22.95;;;;;;;31.59;55.59;100936.28;4828745;29;65978;-34
2021/01/24 11:36:02;;;;;;;35.17;21.08;;;;;;;31.61;55.72;100947.72;4822427;29;69875;-33
2021/01/24 11:38:32;;;;;;;34.70;19.95;;;;;;;31.63;55.76;100944.78;4824065;29;66104;-36
2021/01/24 11:41:20;;;;;;;103.85;33.70;;;;;;;31.71;55.94;100949.09;4822439;29;70274;-34
2021/01/24 11:43:52;;;;;;;77.03;27.83;;;;;;;31.80;55.90;100955.88;4822434;29;65572;-36
2021/01/24 11:46:23;;;;;;;57.10;23.70;;;;;;;31.73;56.50;100952.41;4826606;29;70058;-35
2021/01/24 11:48:53;;;;;;;47.85;20.85;;;;;;;31.76;56.41;100957.38;4826440;29;66162;-34
2021/01/24 11:51:24;;;;;;;39.20;19.20;;;;;;;31.77;55.95;100962.56;4825165;29;68647;-34
2021/01/24 11:53:55;;;;;;;36.80;18.20;;;;;;;31.74;55.85;100964.91;4814562;29;65085;-34
2021/01/24 11:56:26;;;;;;;27.40;15.45;;;;;;;31.71;56.12;100962.66;4825035;29;69696;-35
2021/01/24 11:58:56;;;;;;;33.05;15.90;;;;;;;31.69;56.46;100959.34;4827508;29;66724;-34
2021/01/24 12:01:27;;;;;;;33.03;18.80;;;;;;;31.71;56.37;100968.91;4825476;29;68923;-37
2021/01/24 12:03:59;;;;;;;24.45;16.95;;;;;;;31.58;55.97;100961.72;4824484;29;65302;-34
2021/01/24 12:06:30;;;;;;;31.55;17.75;;;;;;;31.56;56.22;100977.38;4829736;29;69940;-35
2021/01/24 12:09:00;;;;;;;30.38;17.05;;;;;;;31.55;56.06;100986.56;4826806;29;66451;-34
2021/01/24 12:11:31;;;;;;;24.85;16.13;;;;;;;31.54;56.35;100978.69;4827648;29;69781;-34
2021/01/24 12:14:02;;;;;;;18.63;15.60;;;;;;;31.53;56.53;100988.66;4817588;29;65674;-34
2021/01/24 12:16:33;;;;;;;21.98;15.65;;;;;;;31.57;56.59;100995.31;4825081;29;70047;-34
2021/01/24 12:19:03;;;;;;;16.27;14.65;;;;;;;31.53;57.34;100994.09;4826868;29;65257;-33
2021/01/24 12:21:34;;;;;;;39.80;14.77;;;;;;;31.56;57.46;100999.06;4827122;29;69123;-34
2021/01/24 12:24:07;;;;;;;30.90;12.55;;;;;;;31.61;57.49;101001.94;4826781;29;65627;-35
2021/01/24 12:26:37;;;;;;;24.25;10.55;;;;;;;31.63;57.68;101003.63;4826751;29;70647;-36
2021/01/24 12:29:08;;;;;;;15.57;9.23;;;;;;;31.60;57.88;101004.88;4825841;29;66077;-35
2021/01/24 12:31:39;;;;;;;17.13;8.63;;;;;;;31.63;57.87;101011.75;4827372;29;69593;-41
2021/01/24 12:34:11;;;;;;;29.52;11.77;;;;;;;31.53;57.50;101009.53;4827514;29;65377;-36
2021/01/24 12:36:41;;;;;;;28.55;12.65;;;;;;;31.45;56.95;101002.50;4827928;29;69567;-35
2021/01/24 12:39:12;;;;;;;16.75;12.68;;;;;;;31.42;56.74;101012.97;4820050;29;66145;-36
2021/01/24 12:41:43;;;;;;;22.77;12.48;;;;;;;31.31;57.48;101014.47;4826976;29;69895;-40
2021/01/24 12:44:14;;;;;;;28.45;13.43;;;;;;;31.28;57.14;101023.03;4821628;29;65115;-36
2021/01/24 12:46:46;;;;;;;25.20;11.68;;;;;;;31.21;56.98;100995.19;4824074;29;69413;-36
2021/01/24 12:49:17;;;;;;;29.52;10.30;;;;;;;31.27;55.91;101016.78;4824667;29;65902;-37
2021/01/24 12:51:51;;;;;;;20.52;8.70;;;;;;;31.15;54.16;101018.56;4836500;29;69017;-36
2021/01/24 12:54:23;;;;;;;24.38;7.85;;;;;;;31.02;53.17;101014.06;4820812;29;65404;-36
2021/01/24 12:56:54;;;;;;;18.90;7.13;;;;;;;30.87;51.63;101010.78;4822748;29;69839;-37
2021/01/24 12:59:25;;;;;;;33.80;6.85;;;;;;;30.80;51.80;101020.84;4822737;29;66233;-36
2021/01/24 13:02:03;;;;;;;12.35;6.75;;;;;;;30.65;50.92;101018.41;4823234;29;69962;-34
2021/01/24 13:04:34;;;;;;;20.02;5.90;;;;;;;30.56;49.82;101017.78;4821071;29;66159;-34
2021/01/24 13:07:09;;;;;;;24.13;5.38;;;;;;;30.49;49.43;101019.72;4822947;29;69337;-34
2021/01/24 13:09:44;;;;;;;12.07;4.53;;;;;;;30.44;48.44;101024.94;4807892;29;65506;-35
2021/01/24 13:12:17;;;;;;;9.35;4.03;;;;;;;30.30;47.92;101020.63;4823862;29;69159;-38
2021/01/24 13:14:52;;;;;;;7.47;4.07;;;;;;;30.30;47.44;101026.03;4824586;29;66558;-35
2021/01/24 13:17:23;;;;;;;7.90;3.40;;;;;;;30.22;47.50;101018.97;4821876;29;69901;-34
2021/01/24 13:20:00;;;;;;;4.80;3.03;;;;;;;30.16;46.59;101031.44;4823275;29;66675;-34
2021/01/24 13:22:34;;;;;;;5.40;3.20;;;;;;;30.09;46.35;101035.19;4818097;29;70131;-35
2021/01/24 13:25:09;;;;;;;9.85;2.97;;;;;;;30.05;45.93;101027.50;4819082;29;65377;-35
2021/01/24 13:27:52;;;;;;;30.15;3.92;;;;;;;29.98;45.42;101039.41;4820814;29;70248;-35
2021/01/24 13:30:32;;;;;;;13.68;4.18;;;;;;;29.95;45.23;101045.19;4825118;29;65790;-37
2021/01/24 13:33:06;;;;;;;49.30;6.25;;;;;;;29.89;46.98;101056.88;4806191;29;69777;-34
2021/01/24 13:35:40;;;;;;;24.23;5.80;;;;;;;29.86;45.98;101060.00;4822011;29;65265;-34
2021/01/24 13:38:11;;;;;;;8.20;4.63;;;;;;;29.76;45.15;101057.72;4824431;29;70070;-35
2021/01/24 13:40:45;;;;;;;7.35;5.72;;;;;;;29.79;46.09;101062.72;4838244;29;65895;-35
2021/01/24 13:43:19;;;;;;;21.35;5.00;;;;;;;29.73;45.91;101064.38;4827783;29;70489;-34
2021/01/24 13:45:55;;;;;;;14.88;4.43;;;;;;;29.67;45.64;101067.06;4829655;29;65929;-35
2021/01/24 13:48:29;;;;;;;7.13;4.32;;;;;;;29.70;45.08;101075.63;4828299;29;70505;-35
2021/01/24 13:51:02;;;;;;;6.13;3.97;;;;;;;29.69;44.68;101079.34;4826151;29;66493;-35
2021/01/24 13:53:38;;;;;;;6.53;3.30;;;;;;;29.48;43.66;101049.78;4829795;29;70209;-36
2021/01/24 13:56:26;;;;;;;7.72;3.80;;;;;;;29.62;43.98;101073.09;4812563;29;64763;-36
2021/01/24 13:59:04;;;;;;;11.00;3.35;;;;;;;29.61;43.99;101071.41;4828665;29;70060;-34
2021/01/24 14:01:42;;;;;;;12.15;3.90;;;;;;;29.53;44.02;101064.34;4825246;29;65937;-34
2021/01/24 14:04:12;;;;;;;;;;;;;;;29.47;44.65;101069.72;4827841;29;69874;-35
2021/01/24 14:06:55;;;;;;;36.63;4.95;;;;;;;29.44;43.90;101070.13;4826298;29;67531;-34
2021/01/24 14:09:33;;;;;;;22.58;5.05;;;;;;;29.20;42.96;101048.09;4803555;29;70521;-34
2021/01/24 14:12:07;;;;;;;30.08;4.40;;;;;;;29.30;43.38;101064.72;4821524;29;65927;-35
2021/01/24 14:14:50;;;;;;;31.65;4.55;;;;;;;29.26;43.19;101060.78;4825657;29;69709;-35
2021/01/24 14:17:25;;;;;;;40.30;4.40;;;;;;;29.19;42.63;101057.22;4821092;29;67592;-35
2021/01/24 14:19:57;;;;;;;40.95;4.32;;;;;;;29.25;42.53;101072.59;4825994;29;70249;-35
2021/01/24 14:22:38;;;;;;;21.83;3.90;;;;;;;29.13;41.03;101061.56;4826031;29;66073;-35
2021/01/24 14:25:14;;;;;;;19.73;4.00;;;;;;;29.13;42.01;101063.44;4822424;29;70093;-35
2021/01/24 14:27:51;;;;;;;21.30;3.83;;;;;;;29.06;41.26;101062.56;4824935;29;65331;-35
2021/01/24 14:30:27;;;;;;;17.40;3.13;;;;;;;29.02;41.68;101066.69;4827032;29;70976;-35
2021/01/24 14:32:59;;;;;;;14.75;3.20;;;;;;;28.99;41.51;101067.94;4823933;29;66927;-35
2021/01/24 14:35:32;;;;;;;12.38;3.33;;;;;;;28.98;41.55;101063.59;4828009;29;69719;-35
2021/01/24 14:38:07;;;;;;;14.10;2.90;;;;;;;28.89;41.80;101064.78;4823903;29;66548;-35
2021/01/24 14:40:41;;;;;;;6.55;3.20;;;;;;;28.90;41.51;101070.00;4827282;29;70060;-35
2021/01/24 14:43:12;;;;;;;8.18;3.15;;;;;;;28.85;41.53;101058.13;4827335;29;66106;-34
2021/01/24 14:45:47;;;;;;;7.88;2.78;;;;;;;28.81;41.45;101052.31;4825924;29;70138;-34
2021/01/24 14:48:26;;;;;;;3.08;2.78;;;;;;;28.82;41.17;101062.06;4824964;29;66022;-35
2021/01/24 14:51:00;;;;;;;5.78;2.70;;;;;;;28.76;41.29;101064.75;4825402;29;70525;-35
2021/01/24 14:53:40;;;;;;;3.25;2.40;;;;;;;28.75;41.00;101061.19;4822849;29;65695;-35
2021/01/24 14:56:13;;;;;;;2.92;2.63;;;;;;;28.73;41.33;101060.59;4822320;29;69358;-34
2021/01/24 14:58:46;;;;;;;2.75;2.35;;;;;;;28.72;41.40;101061.59;4820985;29;65438;-35
2021/01/24 15:01:19;;;;;;;3.67;3.00;;;;;;;28.66;41.01;101057.00;4826641;29;69940;-35
2021/01/24 15:03:54;;;;;;;6.15;1.95;;;;;;;28.66;41.17;101051.63;4827031;29;66851;-34
2021/01/24 15:06:29;;;;;;;4.22;2.50;;;;;;;28.66;40.86;101055.13;4826361;29;70307;-35
2021/01/24 15:08:59;;;;;;;3.65;2.70;;;;;;;28.63;41.37;101060.13;4827388;29;65659;-35
2021/01/24 15:11:33;;;;;;;3.30;2.80;;;;;;;28.60;41.98;101057.81;4829422;29;69847;-36
2021/01/24 15:14:04;;;;;;;7.13;3.10;;;;;;;28.58;41.58;101059.88;4828583;29;66323;-41
2021/01/24 15:16:35;;;;;;;20.27;3.50;;;;;;;28.63;41.84;101058.25;4823385;29;69240;-37
2021/01/24 15:19:06;;;;;;;8.50;2.90;;;;;;;28.60;41.87;101055.13;4824430;29;64437;-36
2021/01/24 15:21:37;;;;;;;11.57;2.85;;;;;;;28.53;41.74;101049.72;4828104;29;70290;-36
2021/01/24 15:24:08;;;;;;;9.95;3.10;;;;;;;28.47;41.83;101048.63;4824534;29;66535;-37
2021/01/24 15:26:39;;;;;;;8.05;2.80;;;;;;;28.48;41.71;101050.28;4827792;29;69857;-36
2021/01/24 15:29:09;;;;;;;3.03;2.72;;;;;;;28.48;41.44;101044.91;4824433;29;65886;-35
2021/01/24 15:31:40;;;;;;;4.30;2.47;;;;;;;28.45;41.75;101049.88;4826886;29;70505;-36
2021/01/24 15:34:11;;;;;;;5.50;2.83;;;;;;;28.39;41.24;101051.47;4823399;29;66263;-36
2021/01/24 15:36:42;;;;;;;3.35;2.17;;;;;;;28.36;41.27;101051.88;4826530;29;69988;-36
2021/01/24 15:39:13;;;;;;;2.67;2.47;;;;;;;28.37;41.37;101048.13;4826858;29;65354;-35
2021/01/24 15:41:44;;;;;;;2.40;2.20;;;;;;;28.12;41.55;101033.47;4824216;29;69943;-35
2021/01/24 15:44:15;;;;;;;5.82;2.58;;;;;;;28.27;41.19;101063.84;4825419;29;66126;-35
2021/01/24 15:46:45;;;;;;;5.22;2.55;;;;;;;28.27;41.32;101069.22;4825235;29;69976;-36
2021/01/24 15:49:16;;;;;;;11.50;2.00;;;;;;;28.20;41.19;101065.69;4826280;29;65434;-35
2021/01/24 15:51:47;;;;;;;2.50;2.33;;;;;;;28.16;41.03;101059.81;4822044;29;70244;-36
2021/01/24 15:54:17;;;;;;;13.50;2.50;;;;;;;28.17;41.35;101057.97;4826816;29;65233;-36
2021/01/24 15:56:49;;;;;;;12.75;3.03;;;;;;;28.10;41.66;101063.31;4826235;29;69919;-36
2021/01/24 15:59:20;;;;;;;27.30;4.18;;;;;;;28.05;41.58;101061.22;4827155;29;65470;-36
2021/01/24 16:01:51;;;;;;;11.55;3.55;;;;;;;27.99;41.39;101059.28;4827573;29;70228;-35
2021/01/24 16:04:22;;;;;;;7.35;3.80;;;;;;;27.95;41.52;101052.63;4827368;29;65838;-35
2021/01/24 16:06:53;;;;;;;10.98;4.28;;;;;;;27.87;41.53;101055.47;4814339;29;70454;-37
2021/01/24 16:09:24;;;;;;;15.77;4.35;;;;;;;27.85;41.63;101049.44;4827431;29;64975;-36
2021/01/24 16:11:56;;;;;;;12.13;3.85;;;;;;;27.82;41.64;101049.84;4818180;29;70577;-35
2021/01/24 16:14:26;;;;;;;12.50;4.57;;;;;;;27.85;41.80;101049.44;4824676;29;65656;-36
2021/01/24 16:16:57;;;;;;;6.45;4.47;;;;;;;27.83;41.49;101046.97;4825313;29;69027;-35
2021/01/24 16:19:27;;;;;;;6.68;5.15;;;;;;;27.79;41.26;101040.28;4825426;29;66232;-35
2021/01/24 16:22:00;;;;;;;9.77;4.75;;;;;;;27.74;41.37;101040.00;4839323;29;69677;-40
2021/01/24 16:24:30;;;;;;;6.00;4.75;;;;;;;27.77;41.23;101044.16;4827281;29;65994;-36
2021/01/24 16:27:18;;;;;;;6.38;5.00;;;;;;;27.72;41.32;101044.78;4826622;29;69551;-36
2021/01/24 16:29:48;;;;;;;8.80;5.57;;;;;;;27.70;41.27;101041.44;4822067;29;66299;-35
2021/01/24 16:32:19;;;;;;;12.77;5.32;;;;;;;27.66;41.28;101034.75;4821497;29;69125;-36
2021/01/24 16:34:50;;;;;;;12.77;5.47;;;;;;;27.65;41.45;101033.09;4827620;29;66009;-35
2021/01/24 16:37:20;;;;;;;7.70;6.43;;;;;;;27.65;41.42;101032.25;4824799;29;70114;-35
2021/01/24 16:39:52;;;;;;;;;;;;;;;27.67;41.34;101035.59;4825976;29;66805;-35
2021/01/24 16:42:23;;;;;;;9.45;6.70;;;;;;;27.62;41.41;101045.09;4827506;29;69970;-36
2021/01/24 16:44:54;;;;;;;10.90;5.85;;;;;;;27.59;41.21;101039.25;4822726;29;66994;-34
2021/01/24 16:47:26;;;;;;;12.68;6.47;;;;;;;27.51;41.36;101042.91;4826739;29;70604;-35
2021/01/24 16:49:58;;;;;;;13.02;6.28;;;;;;;27.54;41.22;101042.53;4825214;29;65183;-35
2021/01/24 16:52:29;;;;;;;7.07;6.35;;;;;;;27.51;41.47;101042.91;4839392;29;70561;-34
2021/01/24 16:55:00;;;;;;;9.85;6.88;;;;;;;27.49;41.46;101041.44;4824973;29;66447;-35
2021/01/24 16:57:32;;;;;;;7.60;6.20;;;;;;;27.41;41.29;101037.00;4827946;29;68815;-36
2021/01/24 17:00:05;;;;;;;9.13;6.57;;;;;;;27.41;41.27;101026.25;4814201;29;65243;-34
2021/01/24 17:02:36;;;;;;;16.52;6.95;;;;;;;27.39;41.41;101039.09;4823641;29;70421;-34
2021/01/24 17:05:08;;;;;;;8.77;6.88;;;;;;;27.38;41.42;101034.72;4824015;29;66353;-35
2021/01/24 17:07:38;;;;;;;12.02;6.93;;;;;;;27.20;41.49;100999.34;4827047;29;69129;-35
2021/01/24 17:10:11;;;;;;;14.60;7.22;;;;;;;27.33;41.30;101029.91;4826659;29;65789;-35
2021/01/24 17:12:41;;;;;;;17.10;6.45;;;;;;;27.26;41.41;101009.31;4823984;29;69749;-36
2021/01/24 17:15:13;;;;;;;10.05;7.28;;;;;;;27.34;41.31;101030.75;4818809;29;66868;-35